sensor_id;sensor_type;location;lat;lon;timestamp;P1;durP1;ratioP1;P2;durP2;ratioP2
7160;SDS011;3622;53.576;9.978;2023-09-08T00:01:20;7.47;;;6.77;;
7160;SDS011;3622;53.576;9.978;2023-09-08T00:03:46;7.30;;;6.73;;
7160;SDS011;3622;53.576;9.978;2023-09-08T00:06:12;8.93;;;7.17;;
7160;SDS011;3622;53.576;9.978;2023-09-08T00:08:38;7.20;;;6.60;;
7160;SDS011;3622;53.576;9.978;2023-09-08T00:11:04;6.93;;;6.43;;
7160;SDS011;3622;53.576;9.978;2023-09-08T00:13:31;7.80;;;7.10;;
7160;SDS011;3622;53.576;9.978;2023-09-08T00:15:57;8.80;;;7.70;;
7160;SDS011;3622;53.576;9.978;2023-09-08T00:18:23;7.10;;;6.40;;
7160;SDS011;3622;53.576;9.978;2023-09-08T00:20:49;15.00;;;7.10;;
7160;SDS011;3622;53.576;9.978;2023-09-08T00:23:15;7.30;;;6.70;;
7160;SDS011;3622;53.576;9.978;2023-09-08T00:25:41;7.67;;;7.07;;
7160;SDS011;3622;53.576;9.978;2023-09-08T00:28:07;11.20;;;7.13;;
7160;SDS011;3622;53.576;9.978;2023-09-08T00:30:33;7.47;;;6.80;;
7160;SDS011;3622;53.576;9.978;2023-09-08T00:32:59;7.40;;;6.70;;
7160;SDS011;3622;53.576;9.978;2023-09-08T00:35:25;9.10;;;7.50;;
7160;SDS011;3622;53.576;9.978;2023-09-08T00:37:51;8.30;;;7.50;;
7160;SDS011;3622;53.576;9.978;2023-09-08T00:40:17;7.23;;;6.60;;
7160;SDS011;3622;53.576;9.978;2023-09-08T00:42:43;7.43;;;6.83;;
7160;SDS011;3622;53.576;9.978;2023-09-08T00:45:09;8.40;;;7.60;;
7160;SDS011;3622;53.576;9.978;2023-09-08T00:47:35;8.60;;;7.57;;
7160;SDS011;3622;53.576;9.978;2023-09-08T00:50:04;8.10;;;7.40;;
7160;SDS011;3622;53.576;9.978;2023-09-08T00:52:30;7.20;;;6.60;;
7160;SDS011;3622;53.576;9.978;2023-09-08T00:54:57;11.30;;;7.70;;
7160;SDS011;3622;53.576;9.978;2023-09-08T00:57:23;10.97;;;7.50;;
7160;SDS011;3622;53.576;9.978;2023-09-08T00:59:49;10.37;;;7.60;;
7160;SDS011;3622;53.576;9.978;2023-09-08T01:02:15;8.17;;;7.40;;
7160;SDS011;3622;53.576;9.978;2023-09-08T01:04:41;8.97;;;7.23;;
7160;SDS011;3622;53.576;9.978;2023-09-08T01:07:08;7.80;;;7.00;;
7160;SDS011;3622;53.576;9.978;2023-09-08T01:09:34;8.30;;;7.40;;
7160;SDS011;3622;53.576;9.978;2023-09-08T01:12:02;8.83;;;7.60;;
7160;SDS011;3622;53.576;9.978;2023-09-08T01:14:29;8.73;;;7.87;;
7160;SDS011;3622;53.576;9.978;2023-09-08T01:16:55;7.97;;;7.27;;
7160;SDS011;3622;53.576;9.978;2023-09-08T01:19:21;9.10;;;7.93;;
7160;SDS011;3622;53.576;9.978;2023-09-08T01:27:16;8.87;;;8.07;;
7160;SDS011;3622;53.576;9.978;2023-09-08T01:29:44;8.60;;;7.77;;
7160;SDS011;3622;53.576;9.978;2023-09-08T01:32:11;10.60;;;7.77;;
7160;SDS011;3622;53.576;9.978;2023-09-08T01:34:37;8.27;;;7.50;;
7160;SDS011;3622;53.576;9.978;2023-09-08T01:37:06;9.47;;;8.50;;
7160;SDS011;3622;53.576;9.978;2023-09-08T01:39:32;8.10;;;7.30;;
7160;SDS011;3622;53.576;9.978;2023-09-08T01:41:58;8.60;;;7.70;;
7160;SDS011;3622;53.576;9.978;2023-09-08T01:44:24;9.57;;;8.10;;
7160;SDS011;3622;53.576;9.978;2023-09-08T01:46:50;10.07;;;7.60;;
7160;SDS011;3622;53.576;9.978;2023-09-08T01:49:21;8.27;;;7.50;;
7160;SDS011;3622;53.576;9.978;2023-09-08T01:51:47;8.23;;;7.43;;
7160;SDS011;3622;53.576;9.978;2023-09-08T01:54:13;8.80;;;7.77;;
7160;SDS011;3622;53.576;9.978;2023-09-08T01:56:39;11.20;;;7.77;;
7160;SDS011;3622;53.576;9.978;2023-09-08T01:59:05;8.60;;;7.50;;
7160;SDS011;3622;53.576;9.978;2023-09-08T02:01:31;9.37;;;8.47;;
7160;SDS011;3622;53.576;9.978;2023-09-08T02:03:57;14.13;;;7.80;;
7160;SDS011;3622;53.576;9.978;2023-09-08T02:06:23;12.83;;;8.80;;
7160;SDS011;3622;53.576;9.978;2023-09-08T02:08:49;12.33;;;8.93;;
7160;SDS011;3622;53.576;9.978;2023-09-08T02:11:15;11.70;;;9.57;;
7160;SDS011;3622;53.576;9.978;2023-09-08T02:13:44;21.80;;;13.23;;
7160;SDS011;3622;53.576;9.978;2023-09-08T02:16:13;21.70;;;13.47;;
7160;SDS011;3622;53.576;9.978;2023-09-08T02:18:40;12.00;;;8.80;;
7160;SDS011;3622;53.576;9.978;2023-09-08T02:21:06;9.40;;;8.37;;
7160;SDS011;3622;53.576;9.978;2023-09-08T02:23:32;11.20;;;9.70;;
7160;SDS011;3622;53.576;9.978;2023-09-08T02:25:58;8.97;;;8.20;;
7160;SDS011;3622;53.576;9.978;2023-09-08T02:28:24;9.53;;;8.47;;
7160;SDS011;3622;53.576;9.978;2023-09-08T02:30:50;11.40;;;10.20;;
7160;SDS011;3622;53.576;9.978;2023-09-08T02:33:16;10.40;;;8.60;;
7160;SDS011;3622;53.576;9.978;2023-09-08T02:35:43;9.93;;;9.00;;
7160;SDS011;3622;53.576;9.978;2023-09-08T02:38:09;9.63;;;8.40;;
7160;SDS011;3622;53.576;9.978;2023-09-08T02:40:35;10.27;;;9.27;;
7160;SDS011;3622;53.576;9.978;2023-09-08T02:43:01;9.80;;;8.90;;
7160;SDS011;3622;53.576;9.978;2023-09-08T02:45:27;12.10;;;8.73;;
7160;SDS011;3622;53.576;9.978;2023-09-08T02:47:53;12.60;;;8.87;;
7160;SDS011;3622;53.576;9.978;2023-09-08T02:50:19;11.60;;;8.27;;
7160;SDS011;3622;53.576;9.978;2023-09-08T02:52:45;9.73;;;8.67;;
7160;SDS011;3622;53.576;9.978;2023-09-08T02:55:11;9.93;;;8.93;;
7160;SDS011;3622;53.576;9.978;2023-09-08T02:57:38;10.80;;;9.80;;
7160;SDS011;3622;53.576;9.978;2023-09-08T03:00:04;10.20;;;9.07;;
7160;SDS011;3622;53.576;9.978;2023-09-08T03:02:31;14.80;;;10.17;;
7160;SDS011;3622;53.576;9.978;2023-09-08T03:04:57;12.50;;;8.40;;
7160;SDS011;3622;53.576;9.978;2023-09-08T03:07:23;15.73;;;9.57;;
7160;SDS011;3622;53.576;9.978;2023-09-08T03:09:49;14.03;;;8.93;;
7160;SDS011;3622;53.576;9.978;2023-09-08T03:12:15;11.73;;;10.27;;
7160;SDS011;3622;53.576;9.978;2023-09-08T03:14:41;10.17;;;8.70;;
7160;SDS011;3622;53.576;9.978;2023-09-08T03:17:07;18.60;;;9.87;;
7160;SDS011;3622;53.576;9.978;2023-09-08T03:19:33;10.57;;;9.00;;
7160;SDS011;3622;53.576;9.978;2023-09-08T03:21:59;14.00;;;9.47;;
7160;SDS011;3622;53.576;9.978;2023-09-08T03:24:25;10.27;;;9.20;;
7160;SDS011;3622;53.576;9.978;2023-09-08T03:26:51;10.13;;;9.00;;
7160;SDS011;3622;53.576;9.978;2023-09-08T03:29:17;10.53;;;9.53;;
7160;SDS011;3622;53.576;9.978;2023-09-08T03:31:43;10.23;;;9.23;;
7160;SDS011;3622;53.576;9.978;2023-09-08T03:34:09;12.90;;;9.40;;
7160;SDS011;3622;53.576;9.978;2023-09-08T03:36:35;10.10;;;9.07;;
7160;SDS011;3622;53.576;9.978;2023-09-08T03:39:01;10.90;;;9.80;;
7160;SDS011;3622;53.576;9.978;2023-09-08T03:41:27;10.33;;;9.30;;
7160;SDS011;3622;53.576;9.978;2023-09-08T03:43:53;12.13;;;9.30;;
7160;SDS011;3622;53.576;9.978;2023-09-08T03:46:20;11.10;;;9.60;;
7160;SDS011;3622;53.576;9.978;2023-09-08T03:48:46;10.90;;;9.80;;
7160;SDS011;3622;53.576;9.978;2023-09-08T03:51:12;11.23;;;9.17;;
7160;SDS011;3622;53.576;9.978;2023-09-08T03:53:38;10.20;;;9.10;;
7160;SDS011;3622;53.576;9.978;2023-09-08T03:56:04;10.90;;;9.80;;
7160;SDS011;3622;53.576;9.978;2023-09-08T03:58:30;10.87;;;9.77;;
7160;SDS011;3622;53.576;9.978;2023-09-08T04:00:56;11.70;;;9.90;;
7160;SDS011;3622;53.576;9.978;2023-09-08T04:03:22;13.70;;;11.30;;
7160;SDS011;3622;53.576;9.978;2023-09-08T04:05:47;12.53;;;10.37;;
7160;SDS011;3622;53.576;9.978;2023-09-08T04:08:13;12.50;;;11.20;;
7160;SDS011;3622;53.576;9.978;2023-09-08T04:10:39;12.87;;;10.73;;
7160;SDS011;3622;53.576;9.978;2023-09-08T04:13:05;15.00;;;11.73;;
7160;SDS011;3622;53.576;9.978;2023-09-08T04:15:31;11.47;;;10.30;;
7160;SDS011;3622;53.576;9.978;2023-09-08T04:17:57;12.53;;;10.90;;
7160;SDS011;3622;53.576;9.978;2023-09-08T04:20:23;12.73;;;10.47;;
7160;SDS011;3622;53.576;9.978;2023-09-08T04:22:49;10.87;;;9.77;;
7160;SDS011;3622;53.576;9.978;2023-09-08T04:25:15;11.57;;;10.30;;
7160;SDS011;3622;53.576;9.978;2023-09-08T04:27:41;14.00;;;12.50;;
7160;SDS011;3622;53.576;9.978;2023-09-08T04:30:09;12.77;;;11.37;;
7160;SDS011;3622;53.576;9.978;2023-09-08T04:32:35;14.20;;;12.00;;
7160;SDS011;3622;53.576;9.978;2023-09-08T04:35:02;12.10;;;10.80;;
7160;SDS011;3622;53.576;9.978;2023-09-08T04:37:28;11.90;;;10.20;;
7160;SDS011;3622;53.576;9.978;2023-09-08T04:39:55;19.43;;;12.43;;
7160;SDS011;3622;53.576;9.978;2023-09-08T04:42:21;12.90;;;11.10;;
7160;SDS011;3622;53.576;9.978;2023-09-08T04:44:48;16.57;;;13.27;;
7160;SDS011;3622;53.576;9.978;2023-09-08T04:47:14;16.13;;;10.90;;
7160;SDS011;3622;53.576;9.978;2023-09-08T04:49:40;16.60;;;11.67;;
7160;SDS011;3622;53.576;9.978;2023-09-08T04:52:06;12.13;;;10.90;;
7160;SDS011;3622;53.576;9.978;2023-09-08T04:54:32;14.60;;;11.97;;
7160;SDS011;3622;53.576;9.978;2023-09-08T04:56:58;15.60;;;10.60;;
7160;SDS011;3622;53.576;9.978;2023-09-08T04:59:24;13.00;;;10.53;;
7160;SDS011;3622;53.576;9.978;2023-09-08T05:01:50;19.23;;;11.47;;
7160;SDS011;3622;53.576;9.978;2023-09-08T05:04:16;12.97;;;10.60;;
7160;SDS011;3622;53.576;9.978;2023-09-08T05:06:43;15.80;;;10.10;;
7160;SDS011;3622;53.576;9.978;2023-09-08T05:09:09;15.57;;;10.60;;
7160;SDS011;3622;53.576;9.978;2023-09-08T05:11:35;11.93;;;10.60;;
7160;SDS011;3622;53.576;9.978;2023-09-08T05:14:02;14.60;;;11.73;;
7160;SDS011;3622;53.576;9.978;2023-09-08T05:16:28;10.73;;;9.63;;
7160;SDS011;3622;53.576;9.978;2023-09-08T05:19:10;10.17;;;9.17;;
7160;SDS011;3622;53.576;9.978;2023-09-08T05:21:37;11.57;;;9.40;;
7160;SDS011;3622;53.576;9.978;2023-09-08T05:24:03;12.23;;;10.40;;
7160;SDS011;3622;53.576;9.978;2023-09-08T05:26:29;10.40;;;9.30;;
7160;SDS011;3622;53.576;9.978;2023-09-08T05:28:55;11.33;;;9.07;;
7160;SDS011;3622;53.576;9.978;2023-09-08T05:31:21;16.70;;;8.90;;
7160;SDS011;3622;53.576;9.978;2023-09-08T05:33:47;10.90;;;8.80;;
7160;SDS011;3622;53.576;9.978;2023-09-08T05:36:13;11.07;;;8.73;;
7160;SDS011;3622;53.576;9.978;2023-09-08T05:38:39;9.97;;;9.03;;
7160;SDS011;3622;53.576;9.978;2023-09-08T05:41:05;9.93;;;8.80;;
7160;SDS011;3622;53.576;9.978;2023-09-08T05:43:31;10.03;;;8.60;;
7160;SDS011;3622;53.576;9.978;2023-09-08T05:45:57;9.60;;;8.23;;
7160;SDS011;3622;53.576;9.978;2023-09-08T05:48:23;13.77;;;8.73;;
7160;SDS011;3622;53.576;9.978;2023-09-08T05:50:49;12.00;;;9.23;;
7160;SDS011;3622;53.576;9.978;2023-09-08T05:53:15;12.03;;;9.90;;
7160;SDS011;3622;53.576;9.978;2023-09-08T05:55:40;24.40;;;10.33;;
7160;SDS011;3622;53.576;9.978;2023-09-08T05:58:06;13.23;;;9.03;;
7160;SDS011;3622;53.576;9.978;2023-09-08T06:00:33;10.33;;;9.00;;
7160;SDS011;3622;53.576;9.978;2023-09-08T06:02:59;12.53;;;8.70;;
7160;SDS011;3622;53.576;9.978;2023-09-08T06:05:25;12.00;;;9.10;;
7160;SDS011;3622;53.576;9.978;2023-09-08T06:07:50;11.57;;;8.80;;
7160;SDS011;3622;53.576;9.978;2023-09-08T06:10:16;10.47;;;9.13;;
7160;SDS011;3622;53.576;9.978;2023-09-08T06:12:42;12.47;;;9.70;;
7160;SDS011;3622;53.576;9.978;2023-09-08T06:15:09;12.90;;;9.60;;
7160;SDS011;3622;53.576;9.978;2023-09-08T06:17:35;13.80;;;8.63;;
7160;SDS011;3622;53.576;9.978;2023-09-08T06:20:01;15.53;;;9.27;;
7160;SDS011;3622;53.576;9.978;2023-09-08T06:22:27;17.70;;;9.53;;
7160;SDS011;3622;53.576;9.978;2023-09-08T06:24:53;13.60;;;9.10;;
7160;SDS011;3622;53.576;9.978;2023-09-08T06:27:19;11.77;;;9.87;;
7160;SDS011;3622;53.576;9.978;2023-09-08T06:29:45;20.43;;;9.20;;
7160;SDS011;3622;53.576;9.978;2023-09-08T06:32:11;10.73;;;9.53;;
7160;SDS011;3622;53.576;9.978;2023-09-08T06:34:37;13.07;;;9.67;;
7160;SDS011;3622;53.576;9.978;2023-09-08T06:37:03;22.20;;;10.00;;
7160;SDS011;3622;53.576;9.978;2023-09-08T06:39:29;12.03;;;9.23;;
7160;SDS011;3622;53.576;9.978;2023-09-08T06:41:55;10.67;;;9.13;;
7160;SDS011;3622;53.576;9.978;2023-09-08T06:44:21;14.93;;;11.00;;
7160;SDS011;3622;53.576;9.978;2023-09-08T06:46:47;15.70;;;11.40;;
7160;SDS011;3622;53.576;9.978;2023-09-08T06:49:13;15.23;;;9.33;;
7160;SDS011;3622;53.576;9.978;2023-09-08T06:51:39;17.47;;;11.70;;
7160;SDS011;3622;53.576;9.978;2023-09-08T06:54:05;13.90;;;9.07;;
7160;SDS011;3622;53.576;9.978;2023-09-08T06:56:31;14.17;;;9.00;;
7160;SDS011;3622;53.576;9.978;2023-09-08T06:58:57;22.37;;;9.37;;
7160;SDS011;3622;53.576;9.978;2023-09-08T07:01:23;13.87;;;9.30;;
7160;SDS011;3622;53.576;9.978;2023-09-08T07:03:49;27.00;;;13.63;;
7160;SDS011;3622;53.576;9.978;2023-09-08T07:06:15;15.07;;;10.93;;
7160;SDS011;3622;53.576;9.978;2023-09-08T07:08:42;16.03;;;11.03;;
7160;SDS011;3622;53.576;9.978;2023-09-08T07:11:08;24.97;;;14.30;;
7160;SDS011;3622;53.576;9.978;2023-09-08T07:13:34;13.87;;;9.77;;
7160;SDS011;3622;53.576;9.978;2023-09-08T07:16:00;13.50;;;9.57;;
7160;SDS011;3622;53.576;9.978;2023-09-08T07:18:26;10.87;;;8.40;;
7160;SDS011;3622;53.576;9.978;2023-09-08T07:20:52;14.70;;;10.57;;
7160;SDS011;3622;53.576;9.978;2023-09-08T07:23:18;13.40;;;9.50;;
7160;SDS011;3622;53.576;9.978;2023-09-08T07:25:47;19.10;;;9.97;;
7160;SDS011;3622;53.576;9.978;2023-09-08T07:28:13;10.63;;;9.00;;
7160;SDS011;3622;53.576;9.978;2023-09-08T07:30:39;11.20;;;8.83;;
7160;SDS011;3622;53.576;9.978;2023-09-08T07:33:05;10.23;;;9.10;;
7160;SDS011;3622;53.576;9.978;2023-09-08T07:35:31;10.43;;;9.20;;
7160;SDS011;3622;53.576;9.978;2023-09-08T07:37:57;12.70;;;9.47;;
7160;SDS011;3622;53.576;9.978;2023-09-08T07:40:23;18.23;;;9.67;;
7160;SDS011;3622;53.576;9.978;2023-09-08T07:42:49;17.93;;;10.67;;
7160;SDS011;3622;53.576;9.978;2023-09-08T07:45:15;17.60;;;10.33;;
7160;SDS011;3622;53.576;9.978;2023-09-08T07:47:41;32.07;;;20.73;;
7160;SDS011;3622;53.576;9.978;2023-09-08T07:50:19;18.77;;;11.32;;
7160;SDS011;3622;53.576;9.978;2023-09-08T07:52:45;18.13;;;11.05;;
7160;SDS011;3622;53.576;9.978;2023-09-08T07:55:11;24.55;;;13.13;;
7160;SDS011;3622;53.576;9.978;2023-09-08T07:57:37;21.27;;;13.48;;
7160;SDS011;3622;53.576;9.978;2023-09-08T08:00:04;32.17;;;13.30;;
7160;SDS011;3622;53.576;9.978;2023-09-08T08:02:30;19.27;;;11.70;;
7160;SDS011;3622;53.576;9.978;2023-09-08T08:04:56;18.17;;;12.98;;
7160;SDS011;3622;53.576;9.978;2023-09-08T08:07:22;12.35;;;10.10;;
7160;SDS011;3622;53.576;9.978;2023-09-08T08:09:48;18.35;;;9.95;;
7160;SDS011;3622;53.576;9.978;2023-09-08T08:12:14;15.50;;;9.00;;
7160;SDS011;3622;53.576;9.978;2023-09-08T08:14:40;14.02;;;8.68;;
7160;SDS011;3622;53.576;9.978;2023-09-08T08:17:06;20.58;;;16.17;;
7160;SDS011;3622;53.576;9.978;2023-09-08T08:19:32;13.98;;;9.38;;
7160;SDS011;3622;53.576;9.978;2023-09-08T08:21:58;12.80;;;8.68;;
7160;SDS011;3622;53.576;9.978;2023-09-08T08:24:24;14.60;;;9.38;;
7160;SDS011;3622;53.576;9.978;2023-09-08T08:26:50;12.23;;;8.53;;
7160;SDS011;3622;53.576;9.978;2023-09-08T08:29:16;11.40;;;9.68;;
7160;SDS011;3622;53.576;9.978;2023-09-08T08:31:42;11.20;;;9.32;;
7160;SDS011;3622;53.576;9.978;2023-09-08T08:34:08;15.75;;;12.27;;
7160;SDS011;3622;53.576;9.978;2023-09-08T08:36:34;25.50;;;19.95;;
7160;SDS011;3622;53.576;9.978;2023-09-08T08:39:00;13.18;;;8.88;;
7160;SDS011;3622;53.576;9.978;2023-09-08T08:41:26;11.93;;;9.25;;
7160;SDS011;3622;53.576;9.978;2023-09-08T08:43:54;11.75;;;8.50;;
7160;SDS011;3622;53.576;9.978;2023-09-08T08:46:21;14.57;;;8.18;;
7160;SDS011;3622;53.576;9.978;2023-09-08T08:48:48;14.38;;;9.38;;
7160;SDS011;3622;53.576;9.978;2023-09-08T08:51:14;15.97;;;9.17;;
7160;SDS011;3622;53.576;9.978;2023-09-08T08:53:41;14.57;;;11.30;;
7160;SDS011;3622;53.576;9.978;2023-09-08T08:56:09;11.43;;;9.95;;
7160;SDS011;3622;53.576;9.978;2023-09-08T08:58:38;12.93;;;8.15;;
7160;SDS011;3622;53.576;9.978;2023-09-08T09:01:05;9.20;;;8.32;;
7160;SDS011;3622;53.576;9.978;2023-09-08T09:03:31;9.40;;;8.00;;
7160;SDS011;3622;53.576;9.978;2023-09-08T09:05:59;9.83;;;8.23;;
7160;SDS011;3622;53.576;9.978;2023-09-08T09:08:25;11.23;;;8.97;;
7160;SDS011;3622;53.576;9.978;2023-09-08T09:10:52;10.30;;;8.43;;
7160;SDS011;3622;53.576;9.978;2023-09-08T09:13:18;9.00;;;8.07;;
7160;SDS011;3622;53.576;9.978;2023-09-08T09:15:44;9.40;;;8.47;;
7160;SDS011;3622;53.576;9.978;2023-09-08T09:18:11;9.20;;;8.37;;
7160;SDS011;3622;53.576;9.978;2023-09-08T09:20:37;12.73;;;8.77;;
7160;SDS011;3622;53.576;9.978;2023-09-08T09:23:05;10.90;;;7.93;;
7160;SDS011;3622;53.576;9.978;2023-09-08T09:25:31;12.57;;;8.47;;
7160;SDS011;3622;53.576;9.978;2023-09-08T09:27:58;9.23;;;8.33;;
7160;SDS011;3622;53.576;9.978;2023-09-08T09:30:24;16.97;;;8.20;;
7160;SDS011;3622;53.576;9.978;2023-09-08T09:33:04;17.80;;;11.73;;
7160;SDS011;3622;53.576;9.978;2023-09-08T09:35:40;19.43;;;12.10;;
7160;SDS011;3622;53.576;9.978;2023-09-08T09:38:06;8.30;;;7.60;;
7160;SDS011;3622;53.576;9.978;2023-09-08T09:40:33;12.40;;;9.07;;
7160;SDS011;3622;53.576;9.978;2023-09-08T09:42:59;22.57;;;10.53;;
7160;SDS011;3622;53.576;9.978;2023-09-08T09:45:25;12.83;;;8.43;;
7160;SDS011;3622;53.576;9.978;2023-09-08T09:47:51;8.65;;;7.70;;
7160;SDS011;3622;53.576;9.978;2023-09-08T09:50:33;17.27;;;8.70;;
7160;SDS011;3622;53.576;9.978;2023-09-08T09:53:00;24.33;;;11.23;;
7160;SDS011;3622;53.576;9.978;2023-09-08T09:55:26;10.98;;;8.15;;
7160;SDS011;3622;53.576;9.978;2023-09-08T09:57:55;17.03;;;12.77;;
7160;SDS011;3622;53.576;9.978;2023-09-08T10:00:23;17.73;;;9.00;;
7160;SDS011;3622;53.576;9.978;2023-09-08T10:02:49;8.77;;;7.90;;
7160;SDS011;3622;53.576;9.978;2023-09-08T10:05:15;9.60;;;8.03;;
7160;SDS011;3622;53.576;9.978;2023-09-08T10:07:41;10.50;;;8.87;;
7160;SDS011;3622;53.576;9.978;2023-09-08T10:10:08;17.07;;;9.90;;
7160;SDS011;3622;53.576;9.978;2023-09-08T10:12:34;14.00;;;8.47;;
7160;SDS011;3622;53.576;9.978;2023-09-08T10:15:02;13.37;;;12.03;;
7160;SDS011;3622;53.576;9.978;2023-09-08T10:17:31;18.30;;;10.40;;
7160;SDS011;3622;53.576;9.978;2023-09-08T10:19:59;16.30;;;12.10;;
7160;SDS011;3622;53.576;9.978;2023-09-08T10:22:33;11.00;;;8.57;;
7160;SDS011;3622;53.576;9.978;2023-09-08T10:25:02;12.53;;;9.63;;
7160;SDS011;3622;53.576;9.978;2023-09-08T10:27:30;24.87;;;10.30;;
7160;SDS011;3622;53.576;9.978;2023-09-08T10:29:57;15.63;;;9.77;;
7160;SDS011;3622;53.576;9.978;2023-09-08T10:32:26;10.10;;;8.80;;
7160;SDS011;3622;53.576;9.978;2023-09-08T10:34:52;10.00;;;9.10;;
7160;SDS011;3622;53.576;9.978;2023-09-08T10:37:19;11.00;;;9.00;;
7160;SDS011;3622;53.576;9.978;2023-09-08T10:39:45;15.43;;;10.50;;
7160;SDS011;3622;53.576;9.978;2023-09-08T10:44:44;20.23;;;10.30;;
7160;SDS011;3622;53.576;9.978;2023-09-08T10:47:24;10.23;;;9.03;;
7160;SDS011;3622;53.576;9.978;2023-09-08T10:49:50;9.10;;;8.20;;
7160;SDS011;3622;53.576;9.978;2023-09-08T10:52:20;12.70;;;8.70;;
7160;SDS011;3622;53.576;9.978;2023-09-08T10:54:50;13.90;;;8.83;;
7160;SDS011;3622;53.576;9.978;2023-09-08T10:57:17;11.83;;;10.00;;
7160;SDS011;3622;53.576;9.978;2023-09-08T10:59:45;16.10;;;9.60;;
7160;SDS011;3622;53.576;9.978;2023-09-08T11:04:55;10.40;;;9.30;;
7160;SDS011;3622;53.576;9.978;2023-09-08T11:07:21;11.37;;;10.17;;
7160;SDS011;3622;53.576;9.978;2023-09-08T11:09:47;11.07;;;9.27;;
7160;SDS011;3622;53.576;9.978;2023-09-08T11:12:13;10.63;;;9.63;;
7160;SDS011;3622;53.576;9.978;2023-09-08T11:14:42;9.03;;;8.23;;
7160;SDS011;3622;53.576;9.978;2023-09-08T11:17:08;12.50;;;8.67;;
7160;SDS011;3622;53.576;9.978;2023-09-08T11:19:45;9.30;;;8.37;;
7160;SDS011;3622;53.576;9.978;2023-09-08T11:22:12;8.97;;;8.13;;
7160;SDS011;3622;53.576;9.978;2023-09-08T11:24:38;9.00;;;8.10;;
7160;SDS011;3622;53.576;9.978;2023-09-08T11:27:04;12.50;;;9.03;;
7160;SDS011;3622;53.576;9.978;2023-09-08T11:29:30;8.83;;;8.07;;
7160;SDS011;3622;53.576;9.978;2023-09-08T11:31:56;14.40;;;8.93;;
7160;SDS011;3622;53.576;9.978;2023-09-08T11:34:22;8.53;;;7.83;;
7160;SDS011;3622;53.576;9.978;2023-09-08T11:36:48;10.70;;;8.40;;
7160;SDS011;3622;53.576;9.978;2023-09-08T11:39:14;8.50;;;7.80;;
7160;SDS011;3622;53.576;9.978;2023-09-08T11:41:40;9.50;;;8.50;;
7160;SDS011;3622;53.576;9.978;2023-09-08T11:44:06;11.33;;;9.13;;
7160;SDS011;3622;53.576;9.978;2023-09-08T11:46:32;9.73;;;8.73;;
7160;SDS011;3622;53.576;9.978;2023-09-08T11:48:58;8.27;;;7.47;;
7160;SDS011;3622;53.576;9.978;2023-09-08T11:51:25;8.67;;;7.40;;
7160;SDS011;3622;53.576;9.978;2023-09-08T11:53:52;14.67;;;7.70;;
7160;SDS011;3622;53.576;9.978;2023-09-08T11:56:18;9.70;;;7.70;;
7160;SDS011;3622;53.576;9.978;2023-09-08T11:58:44;10.00;;;8.30;;
7160;SDS011;3622;53.576;9.978;2023-09-08T12:01:10;10.50;;;8.53;;
7160;SDS011;3622;53.576;9.978;2023-09-08T12:03:50;17.60;;;11.10;;
7160;SDS011;3622;53.576;9.978;2023-09-08T12:06:16;8.80;;;7.93;;
7160;SDS011;3622;53.576;9.978;2023-09-08T12:08:42;9.60;;;8.53;;
7160;SDS011;3622;53.576;9.978;2023-09-08T12:11:10;8.80;;;7.90;;
7160;SDS011;3622;53.576;9.978;2023-09-08T12:13:36;7.70;;;7.00;;
7160;SDS011;3622;53.576;9.978;2023-09-08T12:16:02;9.30;;;6.90;;
7160;SDS011;3622;53.576;9.978;2023-09-08T12:18:38;8.70;;;7.90;;
7160;SDS011;3622;53.576;9.978;2023-09-08T12:21:04;10.93;;;8.37;;
7160;SDS011;3622;53.576;9.978;2023-09-08T12:23:31;13.57;;;8.30;;
7160;SDS011;3622;53.576;9.978;2023-09-08T12:25:57;9.40;;;8.40;;
7160;SDS011;3622;53.576;9.978;2023-09-08T12:28:23;8.30;;;6.80;;
7160;SDS011;3622;53.576;9.978;2023-09-08T12:30:56;7.93;;;7.10;;
7160;SDS011;3622;53.576;9.978;2023-09-08T12:33:22;8.23;;;7.53;;
7160;SDS011;3622;53.576;9.978;2023-09-08T12:35:48;8.07;;;7.30;;
7160;SDS011;3622;53.576;9.978;2023-09-08T12:38:16;7.47;;;6.83;;
7160;SDS011;3622;53.576;9.978;2023-09-08T12:40:41;11.97;;;8.33;;
7160;SDS011;3622;53.576;9.978;2023-09-08T12:43:07;7.53;;;6.80;;
7160;SDS011;3622;53.576;9.978;2023-09-08T12:45:33;11.07;;;6.90;;
7160;SDS011;3622;53.576;9.978;2023-09-08T12:48:01;7.80;;;7.20;;
7160;SDS011;3622;53.576;9.978;2023-09-08T12:50:28;7.60;;;7.00;;
7160;SDS011;3622;53.576;9.978;2023-09-08T12:52:54;7.27;;;6.43;;
7160;SDS011;3622;53.576;9.978;2023-09-08T12:55:20;6.90;;;6.20;;
7160;SDS011;3622;53.576;9.978;2023-09-08T12:57:46;8.10;;;5.63;;
7160;SDS011;3622;53.576;9.978;2023-09-08T13:00:13;6.13;;;5.63;;
7160;SDS011;3622;53.576;9.978;2023-09-08T13:02:39;6.10;;;5.60;;
7160;SDS011;3622;53.576;9.978;2023-09-08T13:05:06;6.70;;;5.50;;
7160;SDS011;3622;53.576;9.978;2023-09-08T13:07:33;5.87;;;5.30;;
7160;SDS011;3622;53.576;9.978;2023-09-08T13:09:59;35.93;;;9.90;;
7160;SDS011;3622;53.576;9.978;2023-09-08T13:12:25;8.73;;;5.23;;
7160;SDS011;3622;53.576;9.978;2023-09-08T13:14:51;7.17;;;6.47;;
7160;SDS011;3622;53.576;9.978;2023-09-08T13:17:17;6.87;;;6.20;;
7160;SDS011;3622;53.576;9.978;2023-09-08T13:19:43;6.87;;;6.20;;
7160;SDS011;3622;53.576;9.978;2023-09-08T13:22:10;6.27;;;5.80;;
7160;SDS011;3622;53.576;9.978;2023-09-08T13:24:36;6.00;;;5.40;;
7160;SDS011;3622;53.576;9.978;2023-09-08T13:27:02;7.40;;;6.10;;
7160;SDS011;3622;53.576;9.978;2023-09-08T13:29:28;6.70;;;6.10;;
7160;SDS011;3622;53.576;9.978;2023-09-08T13:31:54;6.33;;;5.83;;
7160;SDS011;3622;53.576;9.978;2023-09-08T13:34:23;9.27;;;7.00;;
7160;SDS011;3622;53.576;9.978;2023-09-08T13:36:50;6.60;;;6.10;;
7160;SDS011;3622;53.576;9.978;2023-09-08T13:39:16;6.77;;;6.13;;
7160;SDS011;3622;53.576;9.978;2023-09-08T13:44:15;8.10;;;6.90;;
7160;SDS011;3622;53.576;9.978;2023-09-08T13:46:40;8.00;;;6.90;;
7160;SDS011;3622;53.576;9.978;2023-09-08T13:49:06;8.10;;;6.47;;
7160;SDS011;3622;53.576;9.978;2023-09-08T13:51:32;7.20;;;5.97;;
7160;SDS011;3622;53.576;9.978;2023-09-08T13:53:59;6.30;;;5.90;;
7160;SDS011;3622;53.576;9.978;2023-09-08T13:56:25;7.20;;;6.33;;
7160;SDS011;3622;53.576;9.978;2023-09-08T13:58:51;6.63;;;5.80;;
7160;SDS011;3622;53.576;9.978;2023-09-08T14:01:17;7.13;;;6.50;;
7160;SDS011;3622;53.576;9.978;2023-09-08T14:03:43;10.60;;;6.93;;
7160;SDS011;3622;53.576;9.978;2023-09-08T14:06:09;6.40;;;6.00;;
7160;SDS011;3622;53.576;9.978;2023-09-08T14:08:35;7.47;;;6.77;;
7160;SDS011;3622;53.576;9.978;2023-09-08T14:11:01;7.40;;;6.77;;
7160;SDS011;3622;53.576;9.978;2023-09-08T14:13:27;7.00;;;6.40;;
7160;SDS011;3622;53.576;9.978;2023-09-08T14:15:53;8.30;;;6.73;;
7160;SDS011;3622;53.576;9.978;2023-09-08T14:18:19;7.30;;;6.50;;
7160;SDS011;3622;53.576;9.978;2023-09-08T14:20:45;6.97;;;6.47;;
7160;SDS011;3622;53.576;9.978;2023-09-08T14:23:11;6.47;;;5.97;;
7160;SDS011;3622;53.576;9.978;2023-09-08T14:25:37;7.27;;;6.67;;
7160;SDS011;3622;53.576;9.978;2023-09-08T14:28:03;12.90;;;7.30;;
7160;SDS011;3622;53.576;9.978;2023-09-08T14:30:29;10.73;;;6.60;;
7160;SDS011;3622;53.576;9.978;2023-09-08T14:32:55;8.23;;;6.57;;
7160;SDS011;3622;53.576;9.978;2023-09-08T14:35:21;6.93;;;6.40;;
7160;SDS011;3622;53.576;9.978;2023-09-08T14:37:47;9.70;;;7.33;;
7160;SDS011;3622;53.576;9.978;2023-09-08T14:40:14;9.10;;;6.50;;
7160;SDS011;3622;53.576;9.978;2023-09-08T14:42:40;12.10;;;6.83;;
7160;SDS011;3622;53.576;9.978;2023-09-08T14:45:06;7.40;;;6.77;;
7160;SDS011;3622;53.576;9.978;2023-09-08T14:47:32;7.30;;;6.60;;
7160;SDS011;3622;53.576;9.978;2023-09-08T14:49:58;7.90;;;7.20;;
7160;SDS011;3622;53.576;9.978;2023-09-08T14:52:24;6.77;;;6.17;;
7160;SDS011;3622;53.576;9.978;2023-09-08T14:54:50;7.50;;;6.80;;
7160;SDS011;3622;53.576;9.978;2023-09-08T14:57:16;7.27;;;6.60;;
7160;SDS011;3622;53.576;9.978;2023-09-08T14:59:43;9.40;;;6.80;;
7160;SDS011;3622;53.576;9.978;2023-09-08T15:02:08;7.60;;;6.60;;
7160;SDS011;3622;53.576;9.978;2023-09-08T15:04:35;7.03;;;6.50;;
7160;SDS011;3622;53.576;9.978;2023-09-08T15:07:01;7.20;;;6.50;;
7160;SDS011;3622;53.576;9.978;2023-09-08T15:09:26;11.40;;;7.63;;
7160;SDS011;3622;53.576;9.978;2023-09-08T15:11:52;7.00;;;6.40;;
7160;SDS011;3622;53.576;9.978;2023-09-08T15:14:18;9.50;;;6.00;;